createdAt,value
2022-08-16T03:17:32.239Z,19.10
2022-08-16T03:20:03.755Z,19.10
2022-08-16T03:22:37.281Z,19.10
2022-08-16T03:25:12.668Z,19.10
2022-08-16T03:27:52.816Z,19.20
2022-08-16T03:30:27.002Z,19.20
2022-08-16T03:33:08.256Z,19.10
2022-08-16T03:35:43.738Z,19.20
2022-08-16T03:38:34.401Z,19.30
2022-08-16T03:41:25.457Z,19.30
2022-08-16T03:43:59.622Z,19.30
2022-08-16T03:46:48.191Z,19.30
2022-08-16T03:49:37.008Z,19.30
2022-08-16T03:52:07.745Z,19.30
2022-08-16T03:54:37.841Z,19.40
2022-08-16T03:57:06.530Z,19.50
2022-08-16T03:59:39.876Z,19.40
2022-08-16T04:02:22.447Z,19.50
2022-08-16T04:05:01.920Z,19.40
2022-08-16T04:07:33.314Z,19.50
2022-08-16T04:10:35.588Z,19.50
2022-08-16T04:12:54.314Z,19.50
2022-08-16T04:15:26.264Z,19.60
2022-08-16T04:18:10.588Z,19.60
2022-08-16T04:20:41.601Z,19.60
2022-08-16T04:23:11.774Z,19.60
2022-08-16T04:25:42.996Z,19.60
2022-08-16T04:28:52.143Z,19.70
2022-08-16T04:31:03.723Z,19.70
2022-08-16T04:33:38.060Z,19.80
2022-08-16T04:36:21.640Z,19.80
2022-08-16T04:38:50.254Z,19.90
2022-08-16T04:41:20.628Z,19.90
2022-08-16T04:44:02.704Z,20.00
2022-08-16T04:47:02.676Z,19.90
2022-08-16T04:49:43.876Z,20.00
2022-08-16T04:52:33.844Z,20.00
2022-08-16T04:55:09.843Z,20.10
2022-08-16T04:57:41.749Z,20.20
2022-08-16T05:00:31.304Z,20.20
2022-08-16T05:03:09.245Z,20.30
2022-08-16T05:05:55.595Z,20.50
2022-08-16T05:08:31.355Z,20.50
2022-08-16T05:11:23.161Z,20.60
2022-08-16T05:13:51.846Z,20.70
2022-08-16T05:16:27.996Z,20.80
2022-08-16T05:19:16.284Z,20.90
2022-08-16T05:22:04.453Z,21.00
2022-08-16T05:24:36.998Z,21.20
2022-08-16T05:27:11.439Z,21.20
2022-08-16T05:29:59.244Z,21.30
2022-08-16T05:32:33.815Z,21.40
2022-08-16T05:35:10.945Z,21.50
2022-08-16T05:37:44.668Z,21.40
2022-08-16T05:40:17.059Z,21.50
2022-08-16T05:42:49.246Z,21.60
2022-08-16T05:45:21.947Z,21.60
2022-08-16T05:47:59.778Z,21.70
2022-08-16T05:50:37.256Z,21.70
2022-08-16T05:53:10.221Z,21.70
2022-08-16T05:55:51.075Z,21.60
2022-08-16T05:58:31.507Z,21.60
2022-08-16T06:01:01.453Z,21.60
2022-08-16T06:03:31.380Z,21.70
2022-08-16T06:06:03.901Z,21.70
2022-08-16T06:08:42.249Z,21.70
2022-08-16T06:11:16.240Z,21.80
2022-08-16T06:13:51.024Z,21.80
2022-08-16T06:16:35.450Z,22.10
2022-08-16T06:19:04.939Z,22.20
2022-08-16T06:21:36.880Z,22.30
2022-08-16T06:24:54.007Z,22.50
2022-08-16T06:26:58.105Z,22.70
2022-08-16T06:29:29.588Z,22.80
2022-08-16T06:31:58.721Z,22.90
2022-08-16T06:34:56.128Z,23.00
2022-08-16T06:37:16.288Z,23.00
2022-08-16T06:39:50.031Z,23.30
2022-08-16T06:42:47.892Z,23.60
2022-08-16T06:45:30.947Z,23.70
2022-08-16T06:48:07.792Z,23.90
2022-08-16T06:50:38.088Z,24.10
2022-08-16T06:53:09.691Z,24.10
2022-08-16T06:55:44.604Z,24.20
2022-08-16T06:58:21.892Z,24.20
2022-08-16T07:00:58.184Z,24.30
2022-08-16T07:03:32.413Z,24.60
2022-08-16T07:06:05.118Z,24.70
2022-08-16T07:08:37.868Z,25.00
2022-08-16T07:11:08.015Z,25.20
2022-08-16T07:14:03.980Z,25.60
2022-08-16T07:16:32.876Z,25.70
2022-08-16T07:19:02.876Z,25.80
2022-08-16T07:21:46.346Z,26.60
2022-08-16T07:24:30.093Z,27.70
2022-08-16T07:27:08.630Z,28.00
2022-08-16T07:29:43.039Z,28.50
2022-08-16T07:32:12.559Z,29.30
2022-08-16T07:34:48.427Z,29.70
2022-08-16T07:37:20.364Z,30.00
2022-08-16T07:40:12.090Z,29.90
2022-08-16T07:42:44.523Z,30.10
2022-08-16T07:45:16.974Z,30.60
2022-08-16T07:47:51.261Z,31.00
2022-08-16T07:50:55.942Z,31.40
2022-08-16T07:53:09.410Z,31.80
2022-08-16T07:55:47.609Z,31.90
2022-08-16T07:58:33.806Z,32.00
2022-08-16T08:01:10.911Z,30.60
2022-08-16T08:03:52.072Z,30.40
2022-08-16T08:06:28.663Z,30.80
2022-08-16T08:09:01.680Z,31.40
2022-08-16T08:11:31.995Z,32.00
2022-08-16T08:14:06.821Z,32.40
2022-08-16T08:16:46.570Z,32.10
2022-08-16T08:19:28.524Z,32.20
2022-08-16T08:22:00.603Z,31.80
2022-08-16T08:24:49.015Z,30.80
2022-08-16T08:27:22.807Z,30.10
2022-08-16T08:30:49.043Z,30.20
2022-08-16T08:32:58.863Z,29.50
2022-08-16T08:35:32.386Z,29.20
2022-08-16T08:38:03.306Z,29.80
2022-08-16T08:40:35.604Z,29.60
2022-08-16T08:43:12.573Z,29.20
2022-08-16T08:45:52.451Z,29.10
2022-08-16T08:48:34.979Z,28.80
2022-08-16T08:51:12.062Z,28.80
2022-08-16T08:53:58.753Z,28.40
2022-08-16T08:56:35.175Z,28.30
2022-08-16T08:59:23.942Z,28.20
2022-08-16T09:01:56.278Z,28.00
2022-08-16T09:04:28.960Z,27.50
2022-08-16T09:07:01.165Z,27.60
2022-08-16T09:09:33.305Z,27.70
2022-08-16T09:12:06.613Z,27.10
2022-08-16T09:14:49.409Z,27.00
2022-08-16T09:20:16.844Z,27.00
2022-08-16T09:22:51.271Z,27.20
2022-08-16T09:25:26.097Z,27.10
2022-08-16T09:27:57.749Z,26.90
2022-08-16T09:30:43.196Z,27.10
2022-08-16T09:33:14.597Z,27.20
2022-08-16T09:35:44.188Z,27.10
2022-08-16T09:38:22.314Z,27.20
2022-08-16T09:41:15.021Z,27.20
2022-08-16T09:43:58.055Z,27.30
2022-08-16T09:46:44.923Z,27.30
2022-08-16T09:49:19.741Z,27.30
2022-08-16T09:51:53.349Z,27.10
2022-08-16T09:54:23.099Z,26.90
2022-08-16T09:56:53.286Z,26.90
2022-08-16T09:59:25.429Z,26.90
2022-08-16T10:01:58.696Z,26.90
2022-08-16T10:04:31.243Z,26.70
2022-08-16T10:07:15.252Z,26.60
2022-08-16T10:09:53.526Z,26.20
2022-08-16T10:12:43.325Z,26.30
2022-08-16T10:15:16.234Z,26.50
2022-08-16T10:18:00.171Z,26.50
2022-08-16T10:20:33.981Z,26.50
2022-08-16T10:23:07.383Z,26.50
2022-08-16T10:27:20.110Z,26.60
2022-08-16T10:28:31.720Z,26.60
2022-08-16T10:31:04.120Z,26.50
2022-08-16T10:33:34.439Z,26.30
2022-08-16T10:36:07.611Z,26.10
2022-08-16T10:38:39.622Z,26.10
2022-08-16T10:41:16.118Z,25.90
2022-08-16T10:43:45.068Z,25.60
2022-08-16T10:46:39.584Z,25.40
2022-08-16T10:49:07.493Z,25.30
2022-08-16T10:52:02.755Z,25.10
2022-08-16T10:54:29.500Z,25.00
2022-08-16T10:56:59.171Z,24.90
2022-08-16T10:59:38.273Z,25.10
2022-08-16T11:03:04.738Z,25.20
2022-08-16T11:05:08.586Z,25.40
2022-08-16T11:07:52.073Z,25.70
2022-08-16T11:13:58.150Z,26.10
2022-08-16T11:16:27.324Z,26.10
2022-08-16T11:19:03.742Z,26.10
2022-08-16T11:22:11.154Z,26.10
2022-08-16T11:24:39.734Z,25.90
2022-08-16T11:27:19.561Z,25.60
2022-08-16T11:29:49.498Z,25.40
2022-08-16T11:32:20.260Z,25.30
2022-08-16T11:35:15.741Z,25.20
2022-08-16T11:40:38.813Z,24.90
2022-08-16T11:43:10.426Z,24.70
2022-08-16T11:45:39.197Z,24.40
2022-08-16T11:48:10.853Z,24.40
2022-08-16T11:50:39.006Z,24.40
2022-08-16T11:53:08.616Z,24.30
2022-08-16T11:55:38.511Z,24.30
2022-08-16T11:58:11.013Z,24.20
2022-08-16T12:00:51.581Z,24.20
2022-08-16T12:03:34.638Z,24.20
2022-08-16T12:06:10.661Z,24.30
2022-08-16T12:08:39.365Z,24.20
2022-08-16T12:11:07.606Z,24.20
2022-08-16T12:13:37.388Z,24.20
2022-08-16T12:16:06.671Z,24.10
2022-08-16T12:18:39.747Z,24.00
2022-08-16T12:21:09.915Z,23.90
2022-08-16T12:23:38.747Z,23.70
2022-08-16T12:26:10.344Z,23.80
2022-08-16T12:28:54.801Z,23.90
2022-08-16T12:31:26.133Z,24.10
2022-08-16T12:33:57.537Z,24.10
2022-08-16T12:36:29.905Z,24.40
2022-08-16T12:38:59.438Z,24.70
2022-08-16T12:41:27.605Z,24.80
2022-08-16T12:44:01.314Z,25.00
2022-08-16T12:46:31.064Z,25.20
2022-08-16T12:48:59.685Z,25.40
2022-08-16T12:51:33.049Z,25.80
2022-08-16T12:54:20.664Z,25.90
2022-08-16T12:56:50.499Z,26.10
2022-08-16T12:59:21.977Z,26.00
2022-08-16T13:01:58.008Z,26.30
2022-08-16T13:04:28.007Z,26.40
2022-08-16T13:09:42.137Z,26.40
2022-08-16T13:12:19.983Z,26.40
2022-08-16T13:14:52.365Z,26.40
2022-08-16T13:17:26.387Z,26.60
2022-08-16T13:20:08.932Z,26.70
2022-08-16T13:25:20.850Z,26.70
2022-08-16T13:28:02.792Z,26.50
2022-08-16T13:30:44.184Z,26.60
2022-08-16T13:33:19.011Z,26.60
2022-08-16T13:35:58.098Z,26.60
2022-08-16T13:38:37.618Z,26.50
2022-08-16T13:41:08.414Z,26.70
2022-08-16T13:43:38.414Z,26.80
2022-08-16T13:46:08.729Z,26.90
2022-08-16T13:48:43.839Z,26.90
2022-08-16T13:51:16.768Z,26.80
2022-08-16T13:53:45.907Z,26.80
2022-08-16T13:56:25.182Z,26.90
2022-08-16T13:58:55.316Z,26.90
2022-08-16T14:01:25.058Z,26.70
2022-08-16T14:03:54.667Z,26.80
2022-08-16T14:06:24.053Z,26.70
2022-08-16T14:08:59.186Z,26.80
2022-08-16T14:11:35.886Z,26.90
2022-08-16T14:14:05.509Z,26.90
2022-08-16T14:16:35.935Z,27.00
2022-08-16T14:19:06.997Z,27.00
2022-08-16T14:21:35.891Z,26.90
2022-08-16T14:24:16.715Z,26.90
2022-08-16T14:26:53.740Z,27.00
2022-08-16T14:29:22.042Z,27.00
2022-08-16T14:31:53.515Z,27.10
2022-08-16T14:34:25.540Z,27.10
2022-08-16T14:36:54.232Z,27.20
2022-08-16T14:39:23.290Z,27.20
2022-08-16T14:41:53.403Z,27.20
2022-08-16T14:44:24.261Z,27.20
2022-08-16T14:46:55.879Z,27.20
2022-08-16T14:49:25.033Z,27.30
2022-08-16T14:51:53.433Z,27.30
2022-08-16T14:54:22.415Z,27.30
2022-08-16T14:56:56.967Z,27.30
2022-08-16T14:59:25.713Z,27.30
2022-08-16T15:01:58.963Z,27.30
2022-08-16T15:04:32.435Z,27.40
2022-08-16T15:07:12.439Z,27.30
2022-08-16T15:09:44.830Z,27.30
2022-08-16T15:12:30.957Z,27.40
2022-08-16T15:15:03.603Z,27.40
2022-08-16T15:17:37.102Z,27.40
2022-08-16T15:20:10.864Z,27.40
2022-08-16T15:22:42.156Z,27.50
2022-08-16T15:25:13.208Z,27.40
2022-08-16T15:27:44.387Z,27.40
2022-08-16T15:30:57.818Z,27.50
2022-08-16T15:33:07.895Z,27.40
2022-08-16T15:35:38.886Z,27.40
2022-08-16T15:38:09.183Z,27.30
2022-08-16T15:40:52.184Z,27.30
2022-08-16T15:43:39.219Z,27.20
2022-08-16T15:46:35.230Z,27.30
2022-08-16T15:49:14.759Z,27.30
2022-08-16T15:51:44.754Z,27.30
2022-08-16T15:54:29.032Z,27.20
2022-08-16T15:57:04.241Z,27.10
2022-08-16T15:59:48.956Z,27.20
2022-08-16T16:02:27.308Z,27.10
2022-08-16T16:04:57.729Z,27.00
2022-08-16T16:07:30.252Z,27.00
2022-08-16T16:09:59.352Z,27.00
2022-08-16T16:12:51.390Z,26.90
2022-08-16T16:15:18.415Z,26.80
2022-08-16T16:17:51.041Z,26.80
2022-08-16T16:20:27.217Z,26.80
2022-08-16T16:22:57.817Z,26.70
2022-08-16T16:25:27.061Z,26.70
2022-08-16T16:28:00.316Z,26.70
2022-08-16T16:30:38.000Z,26.60
2022-08-16T16:33:15.778Z,26.60
2022-08-16T16:35:55.306Z,26.60
2022-08-16T16:38:26.998Z,26.50
2022-08-16T16:40:55.374Z,26.40
2022-08-16T16:43:26.096Z,26.40
2022-08-16T16:46:01.687Z,26.30
2022-08-16T16:48:35.091Z,26.20
2022-08-16T16:51:09.805Z,26.20
2022-08-16T16:53:42.218Z,26.10
2022-08-16T16:56:20.265Z,26.00
2022-08-16T16:59:01.084Z,25.90
2022-08-16T17:01:57.097Z,25.80
2022-08-16T17:04:27.432Z,25.70
2022-08-16T17:07:01.806Z,25.60
2022-08-16T17:09:30.328Z,25.40
2022-08-16T17:11:59.398Z,25.30
2022-08-16T17:14:32.849Z,25.20
2022-08-16T17:17:06.177Z,25.10
2022-08-16T17:19:40.185Z,24.90
2022-08-16T17:22:14.842Z,24.80
2022-08-16T17:24:50.695Z,24.60
2022-08-16T17:27:32.409Z,24.50
2022-08-16T17:30:02.739Z,24.40
2022-08-16T17:32:33.693Z,24.30
2022-08-16T17:35:18.961Z,24.20
2022-08-16T17:37:51.972Z,24.10
2022-08-16T17:40:40.890Z,24.00
2022-08-16T17:43:12.610Z,23.90
2022-08-16T17:45:42.352Z,23.80
2022-08-16T17:48:11.189Z,23.70
2022-08-16T17:50:40.626Z,23.50
2022-08-16T17:53:11.993Z,23.50
2022-08-16T17:55:42.365Z,23.40
2022-08-16T17:58:23.444Z,23.40
2022-08-16T18:00:54.034Z,23.30
2022-08-16T18:04:06.996Z,23.30
2022-08-16T18:06:15.781Z,23.30
2022-08-16T18:08:48.808Z,23.20
2022-08-16T18:11:25.823Z,23.10
2022-08-16T18:13:56.392Z,23.10
2022-08-16T18:16:24.894Z,22.90
2022-08-16T18:18:52.991Z,23.10
2022-08-16T18:21:38.508Z,23.00
2022-08-16T18:24:09.162Z,23.00
2022-08-16T18:26:38.478Z,23.00
2022-08-16T18:29:06.959Z,23.00
2022-08-16T18:31:35.372Z,22.90
2022-08-16T18:34:03.534Z,23.00
2022-08-16T18:36:32.004Z,23.00
2022-08-16T18:39:00.287Z,23.00
2022-08-16T18:41:30.578Z,23.10
2022-08-16T18:44:24.807Z,23.10
2022-08-16T18:46:51.069Z,23.10
2022-08-16T18:49:20.068Z,23.10
2022-08-16T18:51:48.386Z,23.00
2022-08-16T18:54:19.137Z,23.10
2022-08-16T18:56:53.688Z,22.90
2022-08-16T18:59:30.873Z,22.90
2022-08-16T19:02:04.801Z,22.90
2022-08-16T19:04:48.068Z,22.80
2022-08-16T19:07:23.386Z,22.80
2022-08-16T19:10:00.346Z,22.80
2022-08-16T19:12:38.243Z,22.80
2022-08-16T19:15:14.327Z,22.70
2022-08-16T19:17:45.557Z,22.70
2022-08-16T19:20:16.309Z,22.70
2022-08-16T19:23:04.675Z,22.70
2022-08-16T19:25:47.009Z,22.60
2022-08-16T19:28:52.087Z,22.60
2022-08-16T19:31:12.335Z,22.50
2022-08-16T19:33:51.993Z,22.50
2022-08-16T19:36:31.088Z,22.50
2022-08-16T19:39:06.547Z,22.40
2022-08-16T19:41:36.831Z,22.40
2022-08-16T19:44:07.897Z,22.30
2022-08-16T19:46:37.735Z,22.30
2022-08-16T19:49:06.212Z,22.20
2022-08-16T19:51:34.993Z,22.10
2022-08-16T19:54:03.370Z,22.10
2022-08-16T19:56:31.653Z,22.00
2022-08-16T19:59:18.748Z,22.00
2022-08-16T20:01:52.073Z,21.80
2022-08-16T20:04:21.579Z,21.80
2022-08-16T20:06:50.201Z,21.70
2022-08-16T20:09:18.562Z,21.60
2022-08-16T20:11:47.260Z,21.60
2022-08-16T20:14:24.009Z,21.50
2022-08-16T20:16:55.773Z,21.50
2022-08-16T20:19:24.144Z,21.40
2022-08-16T20:21:52.628Z,21.40
2022-08-16T20:24:36.845Z,21.30
2022-08-16T20:27:06.399Z,21.20
2022-08-16T20:29:34.917Z,21.20
2022-08-16T20:32:05.124Z,21.20
2022-08-16T20:34:34.483Z,21.10
2022-08-16T20:37:02.758Z,21.10
2022-08-16T20:39:30.901Z,21.00
2022-08-16T20:41:59.557Z,21.00
2022-08-16T20:44:27.647Z,20.80
2022-08-16T20:46:55.739Z,20.90
2022-08-16T20:49:25.296Z,20.80
2022-08-16T20:51:58.722Z,20.80
2022-08-16T20:54:28.025Z,20.80
2022-08-16T20:56:56.382Z,20.80
2022-08-16T20:59:24.631Z,20.80
2022-08-16T21:01:53.201Z,20.70
2022-08-16T21:04:23.188Z,20.70
2022-08-16T21:06:54.973Z,20.70
2022-08-16T21:09:25.125Z,20.50
2022-08-16T21:11:54.405Z,20.60
2022-08-16T21:14:22.657Z,20.60
2022-08-16T21:16:50.978Z,20.60
2022-08-16T21:19:19.143Z,20.60
2022-08-16T21:21:47.292Z,20.50
2022-08-16T21:24:17.187Z,20.50
2022-08-16T21:26:55.420Z,20.50
2022-08-16T21:29:36.871Z,20.40
2022-08-16T21:32:10.810Z,20.40
2022-08-16T21:34:39.104Z,20.40
2022-08-16T21:37:07.312Z,20.40
2022-08-16T21:39:36.993Z,20.40
2022-08-16T21:42:09.411Z,20.30
2022-08-16T21:44:38.928Z,20.20
2022-08-16T21:47:08.348Z,20.30
2022-08-16T21:49:37.774Z,20.20
2022-08-16T21:52:07.198Z,20.20
2022-08-16T21:54:38.123Z,20.10
2022-08-16T21:57:10.672Z,20.10
2022-08-16T21:59:39.185Z,20.10
2022-08-16T22:02:07.605Z,20.10
2022-08-16T22:04:38.748Z,20.20
2022-08-16T22:07:07.789Z,20.10
2022-08-16T22:09:37.294Z,20.10
